createdAt,value
2022-09-23T00:01:11.575Z,5.40
2022-09-23T00:03:41.830Z,5.10
2022-09-23T00:06:17.603Z,5.43
2022-09-23T00:08:44.551Z,5.87
2022-09-23T00:11:15.389Z,5.50
2022-09-23T00:13:44.254Z,6.10
2022-09-23T00:16:38.945Z,6.23
2022-09-23T00:19:06.502Z,7.37
2022-09-23T00:21:33.410Z,6.80
2022-09-23T00:24:00.323Z,7.50
2022-09-23T00:26:30.022Z,8.10
2022-09-23T00:28:56.813Z,8.73
2022-09-23T00:31:26.206Z,8.53
2022-09-23T00:33:58.161Z,7.90
2022-09-23T00:36:25.904Z,8.33
2022-09-23T00:38:53.933Z,7.70
2022-09-23T00:41:21.374Z,7.53
2022-09-23T00:43:57.534Z,7.53
2022-09-23T00:46:39.864Z,7.03
2022-09-23T00:49:12.487Z,7.73
2022-09-23T00:51:54.513Z,7.07
2022-09-23T00:54:24.540Z,6.53
2022-09-23T00:56:52.287Z,6.73
2022-09-23T00:59:20.730Z,6.90
2022-09-23T01:01:54.715Z,7.40
2022-09-23T01:04:24.658Z,6.63
2022-09-23T01:06:51.407Z,6.47
2022-09-23T01:09:18.514Z,6.73
2022-09-23T01:12:11.959Z,6.50
2022-09-23T01:15:55.582Z,6.13
2022-09-23T01:18:34.376Z,6.83
2022-09-23T01:21:22.504Z,6.97
2022-09-23T01:24:19.848Z,6.93
2022-09-23T01:27:00.005Z,6.50
2022-09-23T01:29:48.014Z,6.27
2022-09-23T01:32:54.243Z,7.30
2022-09-23T01:35:30.443Z,6.90
2022-09-23T01:38:16.318Z,7.50
2022-09-23T01:41:46.767Z,7.20
2022-09-23T01:44:34.922Z,6.80
2022-09-23T01:47:14.693Z,6.87
2022-09-23T01:50:01.193Z,7.00
2022-09-23T01:52:37.141Z,6.67
2022-09-23T01:55:26.990Z,7.23
2022-09-23T01:58:05.005Z,7.33
2022-09-23T02:00:49.762Z,6.50
2022-09-23T02:03:26.875Z,6.60
2022-09-23T02:06:02.142Z,6.77
2022-09-23T02:08:41.818Z,6.67
2022-09-23T02:11:18.441Z,6.60
2022-09-23T02:14:03.178Z,6.50
2022-09-23T02:16:42.451Z,6.63
2022-09-23T02:19:42.050Z,6.77
2022-09-23T02:22:18.204Z,7.03
2022-09-23T02:24:45.327Z,6.60
2022-09-23T02:27:46.652Z,6.60
2022-09-23T02:33:08.549Z,7.07
2022-09-23T02:35:54.217Z,7.67
2022-09-23T02:38:40.435Z,7.47
2022-09-23T02:41:09.834Z,7.63
2022-09-23T02:43:48.729Z,7.47
2022-09-23T02:46:16.660Z,7.30
2022-09-23T02:48:48.542Z,8.00
2022-09-23T02:51:15.804Z,7.90
2022-09-23T02:53:46.776Z,8.20
2022-09-23T02:56:20.410Z,7.60
2022-09-23T02:58:54.177Z,8.37
2022-09-23T03:01:58.798Z,8.80
2022-09-23T03:04:54.427Z,7.83
2022-09-23T03:07:33.479Z,8.10
2022-09-23T03:10:26.343Z,8.30
2022-09-23T03:13:25.115Z,9.03
2022-09-23T03:16:08.710Z,8.20
2022-09-23T03:18:53.626Z,8.90
2022-09-23T03:21:35.097Z,8.40
2022-09-23T03:24:07.463Z,9.00
2022-09-23T03:26:38.951Z,9.17
2022-09-23T03:29:11.673Z,9.53
2022-09-23T03:31:40.205Z,8.80
2022-09-23T03:34:17.907Z,8.80
2022-09-23T03:36:59.286Z,9.07
2022-09-23T03:39:40.192Z,9.23
2022-09-23T03:42:30.626Z,9.00
2022-09-23T03:44:58.300Z,8.93
2022-09-23T03:47:37.822Z,9.07
2022-09-23T03:50:05.701Z,9.40
2022-09-23T03:52:32.668Z,9.50
2022-09-23T03:55:56.210Z,8.90
2022-09-23T03:58:23.087Z,9.00
2022-09-23T04:00:50.047Z,8.87
2022-09-23T04:03:19.285Z,9.93
2022-09-23T04:05:46.393Z,9.23
2022-09-23T04:08:20.144Z,9.50
2022-09-23T04:10:49.052Z,8.87
2022-09-23T04:13:18.478Z,9.50
2022-09-23T04:15:49.710Z,8.93
2022-09-23T04:18:17.853Z,8.93
2022-09-23T04:20:48.308Z,8.73
2022-09-23T04:23:15.474Z,9.23
2022-09-23T04:25:49.792Z,10.07
2022-09-23T04:28:16.947Z,9.23
2022-09-23T04:30:44.390Z,9.10
2022-09-23T04:33:12.306Z,10.17
2022-09-23T04:35:40.474Z,9.37
2022-09-23T04:38:14.364Z,9.80
2022-09-23T04:40:41.805Z,9.73
2022-09-23T04:43:13.325Z,9.47
2022-09-23T04:45:44.900Z,9.70
2022-09-23T04:48:13.931Z,10.50
2022-09-23T04:50:41.532Z,10.33
2022-09-23T04:53:08.366Z,10.43
2022-09-23T04:55:35.200Z,11.10
2022-09-23T04:58:02.083Z,10.50
2022-09-23T05:00:29.320Z,11.57
2022-09-23T05:02:56.273Z,11.13
2022-09-23T05:05:23.720Z,12.37
2022-09-23T05:07:51.291Z,12.30
2022-09-23T05:10:18.693Z,12.03
2022-09-23T05:12:45.920Z,12.67
2022-09-23T05:15:16.407Z,13.33
2022-09-23T05:17:43.855Z,14.10
2022-09-23T05:20:11.636Z,14.77
2022-09-23T05:22:38.781Z,16.47
2022-09-23T05:25:06.201Z,15.40
2022-09-23T05:27:33.215Z,16.00
2022-09-23T05:30:03.367Z,16.43
2022-09-23T05:32:30.234Z,15.13
2022-09-23T05:34:57.485Z,14.80
2022-09-23T05:37:25.436Z,15.27
2022-09-23T05:39:52.551Z,15.10
2022-09-23T05:42:25.635Z,15.20
2022-09-23T05:44:52.665Z,15.40
2022-09-23T05:47:21.864Z,14.80
2022-09-23T05:49:59.640Z,15.27
2022-09-23T05:52:27.364Z,14.77
2022-09-23T05:54:54.360Z,14.77
2022-09-23T05:57:30.370Z,16.57
2022-09-23T05:59:57.484Z,14.73
2022-09-23T06:02:24.399Z,15.33
2022-09-23T06:04:51.398Z,14.73
2022-09-23T06:07:18.260Z,15.43
2022-09-23T06:09:45.571Z,14.77
2022-09-23T06:12:14.471Z,14.07
2022-09-23T06:14:41.441Z,15.80
2022-09-23T06:17:10.884Z,16.03
2022-09-23T06:19:37.831Z,15.87
2022-09-23T06:22:04.698Z,14.97
2022-09-23T06:24:32.243Z,15.30
2022-09-23T06:27:03.259Z,14.47
2022-09-23T06:29:33.269Z,15.30
2022-09-23T06:32:00.194Z,15.53
2022-09-23T06:34:27.062Z,14.73
2022-09-23T06:36:55.610Z,13.43
2022-09-23T06:39:23.025Z,13.20
2022-09-23T06:41:49.862Z,13.17
2022-09-23T06:44:16.690Z,13.23
2022-09-23T06:46:44.284Z,12.80
2022-09-23T06:49:12.400Z,14.38
2022-09-23T06:51:40.289Z,15.88
2022-09-23T06:54:07.903Z,13.93
2022-09-23T06:56:38.785Z,13.00
2022-09-23T06:59:10.581Z,14.70
2022-09-23T07:01:41.046Z,12.43
2022-09-23T07:04:10.230Z,11.33
2022-09-23T07:06:37.317Z,9.93
2022-09-23T07:09:06.533Z,9.93
2022-09-23T07:11:33.758Z,10.23
2022-09-23T07:14:00.639Z,10.40
2022-09-23T07:16:28.248Z,10.27
2022-09-23T07:18:55.427Z,10.50
2022-09-23T07:21:22.326Z,10.17
2022-09-23T07:23:52.719Z,10.60
2022-09-23T07:26:20.651Z,10.57
2022-09-23T07:28:47.768Z,10.80
2022-09-23T07:31:29.927Z,10.10
2022-09-23T07:34:04.627Z,10.57
2022-09-23T07:36:34.028Z,10.43
2022-09-23T07:39:03.614Z,10.33
2022-09-23T07:41:32.025Z,10.27
2022-09-23T07:44:00.598Z,10.47
2022-09-23T07:46:32.952Z,10.70
2022-09-23T07:49:00.639Z,10.63
2022-09-23T07:51:36.353Z,11.57
2022-09-23T07:54:10.078Z,10.87
2022-09-23T07:56:38.132Z,11.87
2022-09-23T07:59:08.927Z,11.60
2022-09-23T08:01:42.541Z,8.73
2022-09-23T08:04:18.787Z,9.10
2022-09-23T08:06:51.375Z,7.13
2022-09-23T08:09:19.956Z,6.87
2022-09-23T08:11:46.986Z,8.13
2022-09-23T08:14:15.241Z,7.63
2022-09-23T08:16:44.869Z,3.63
2022-09-23T08:19:12.813Z,3.70
2022-09-23T08:21:41.824Z,3.40
2022-09-23T08:24:15.555Z,2.30
2022-09-23T08:26:43.305Z,2.57
2022-09-23T08:29:13.277Z,2.43
2022-09-23T08:31:40.366Z,1.90
2022-09-23T08:34:08.169Z,1.90
2022-09-23T08:36:36.006Z,1.70
2022-09-23T08:39:03.743Z,1.90
2022-09-23T08:41:59.330Z,1.67
2022-09-23T08:44:30.226Z,2.00
2022-09-23T08:47:13.366Z,1.70
2022-09-23T08:49:48.190Z,1.17
2022-09-23T08:52:43.082Z,1.20
2022-09-23T08:55:15.025Z,1.20
2022-09-23T08:58:14.087Z,2.03
2022-09-23T09:00:42.151Z,1.20
2022-09-23T09:03:26.064Z,1.07
2022-09-23T09:05:55.119Z,0.93
2022-09-23T09:08:31.410Z,1.20
2022-09-23T09:10:59.082Z,1.40
2022-09-23T09:13:53.683Z,1.60
2022-09-23T09:16:59.369Z,1.60
2022-09-23T09:19:52.259Z,1.90
2022-09-23T09:25:24.179Z,1.40
2022-09-23T09:27:58.431Z,1.50
2022-09-23T09:30:25.675Z,1.40
2022-09-23T09:33:02.753Z,1.80
2022-09-23T09:36:01.485Z,1.90
2022-09-23T09:38:28.776Z,1.90
2022-09-23T09:41:02.862Z,2.00
2022-09-23T09:43:32.353Z,2.13
2022-09-23T09:46:17.859Z,1.83
2022-09-23T09:48:56.344Z,2.17
2022-09-23T09:51:26.309Z,2.17
2022-09-23T09:53:55.696Z,2.00
2022-09-23T09:56:33.171Z,2.30
2022-09-23T09:59:15.218Z,2.50
2022-09-23T10:01:42.570Z,2.03
2022-09-23T10:04:33.933Z,1.90
2022-09-23T10:07:13.159Z,1.40
2022-09-23T10:09:48.353Z,1.10
2022-09-23T10:12:21.542Z,1.30
2022-09-23T10:14:51.349Z,1.33
2022-09-23T10:17:34.147Z,1.77
2022-09-23T10:20:07.036Z,1.60
2022-09-23T10:22:39.104Z,1.47
2022-09-23T10:25:27.571Z,1.33
2022-09-23T10:27:54.580Z,1.40
2022-09-23T10:30:24.579Z,1.20
2022-09-23T10:32:55.044Z,1.10
2022-09-23T10:35:24.585Z,1.42
2022-09-23T10:37:59.951Z,1.40
2022-09-23T10:40:48.263Z,1.20
2022-09-23T10:44:04.306Z,1.10
2022-09-23T10:46:53.546Z,0.60
2022-09-23T10:49:44.625Z,1.00
2022-09-23T10:52:42.435Z,0.90
2022-09-23T10:55:33.338Z,0.83
2022-09-23T10:58:09.229Z,0.80
2022-09-23T11:01:37.687Z,0.80
2022-09-23T11:04:26.083Z,0.80
2022-09-23T11:07:14.170Z,0.70
2022-09-23T11:09:49.817Z,1.00
2022-09-23T11:12:38.333Z,0.90
2022-09-23T11:15:41.241Z,0.80
2022-09-23T11:19:02.248Z,0.70
2022-09-23T11:21:54.092Z,1.00
2022-09-23T11:24:50.259Z,0.90
2022-09-23T11:27:30.550Z,1.10
2022-09-23T11:30:16.850Z,0.97
2022-09-23T11:33:21.005Z,0.90
2022-09-23T11:36:02.187Z,1.00
2022-09-23T11:38:42.985Z,1.10
2022-09-23T11:41:25.935Z,0.80
2022-09-23T11:44:23.797Z,0.70
2022-09-23T11:47:21.841Z,0.80
2022-09-23T11:50:20.929Z,1.10
2022-09-23T11:53:02.454Z,0.90
2022-09-23T11:55:37.040Z,1.30
2022-09-23T11:58:24.406Z,0.70
2022-09-23T12:01:24.234Z,0.70
2022-09-23T12:04:12.159Z,0.80
2022-09-23T12:07:14.714Z,0.60
2022-09-23T12:10:05.693Z,0.90
2022-09-23T12:13:05.023Z,0.80
2022-09-23T12:16:09.992Z,1.00
2022-09-23T12:19:04.691Z,0.73
2022-09-23T12:21:52.325Z,0.90
2022-09-23T12:24:50.454Z,0.90
2022-09-23T12:27:39.542Z,0.82
2022-09-23T12:30:19.829Z,0.80
2022-09-23T12:32:51.573Z,0.90
2022-09-23T12:35:38.078Z,0.80
2022-09-23T12:38:22.901Z,1.07
2022-09-23T12:40:52.347Z,1.10
2022-09-23T12:43:34.858Z,1.10
2022-09-23T12:46:26.008Z,1.00
2022-09-23T12:48:57.386Z,1.00
2022-09-23T12:51:25.948Z,0.80
2022-09-23T12:54:01.310Z,0.97
2022-09-23T12:56:35.294Z,0.90
2022-09-23T12:59:12.216Z,0.80
2022-09-23T13:01:39.517Z,0.70
2022-09-23T13:04:24.937Z,0.90
2022-09-23T13:06:58.037Z,0.90
2022-09-23T13:09:33.368Z,0.90
2022-09-23T13:12:08.690Z,0.80
2022-09-23T13:14:36.500Z,0.90
2022-09-23T13:17:04.680Z,0.90
2022-09-23T13:19:36.594Z,0.90
2022-09-23T13:22:09.002Z,1.03
2022-09-23T13:24:54.406Z,1.23
2022-09-23T13:27:23.335Z,1.00
2022-09-23T13:30:14.793Z,1.10
2022-09-23T13:33:01.593Z,1.00
2022-09-23T13:35:38.028Z,1.10
2022-09-23T13:38:18.837Z,1.10
2022-09-23T13:40:47.124Z,1.10
2022-09-23T13:43:41.335Z,1.30
2022-09-23T13:46:20.287Z,0.90
2022-09-23T13:48:50.686Z,1.10
2022-09-23T13:51:34.931Z,1.00
2022-09-23T13:54:04.605Z,1.10
2022-09-23T13:56:33.935Z,0.90
2022-09-23T13:59:38.291Z,0.90
2022-09-23T14:02:11.563Z,0.90
2022-09-23T14:04:38.626Z,1.00
2022-09-23T14:07:08.030Z,1.00
2022-09-23T14:09:35.700Z,1.20
2022-09-23T14:12:06.019Z,1.00
2022-09-23T14:14:37.168Z,1.33
2022-09-23T14:17:06.308Z,1.30
2022-09-23T14:19:36.541Z,1.30
2022-09-23T14:22:03.965Z,1.20
2022-09-23T14:24:35.342Z,1.07
2022-09-23T14:27:15.981Z,1.30
2022-09-23T14:29:45.347Z,1.17
2022-09-23T14:32:17.755Z,1.00
2022-09-23T14:35:01.105Z,1.00
2022-09-23T14:37:55.626Z,1.20
2022-09-23T14:40:32.023Z,1.10
2022-09-23T14:43:03.841Z,1.03
2022-09-23T14:45:34.728Z,1.20
2022-09-23T14:48:17.448Z,1.23
2022-09-23T14:50:51.349Z,1.10
2022-09-23T14:53:24.446Z,1.07
2022-09-23T14:55:57.260Z,1.00
2022-09-23T14:58:28.797Z,1.10
2022-09-23T15:01:00.669Z,0.90
2022-09-23T15:03:29.387Z,1.00
2022-09-23T15:06:08.541Z,1.10
2022-09-23T15:08:36.993Z,1.07
2022-09-23T15:11:08.176Z,1.10
2022-09-23T15:13:46.743Z,1.10
2022-09-23T15:16:15.787Z,1.00
2022-09-23T15:18:46.250Z,1.10
2022-09-23T15:21:16.353Z,1.20
2022-09-23T15:23:56.132Z,1.30
2022-09-23T15:26:25.941Z,1.50
2022-09-23T15:28:55.961Z,1.93
2022-09-23T15:31:33.001Z,1.13
2022-09-23T15:33:59.911Z,1.50
2022-09-23T15:36:28.595Z,1.20
2022-09-23T15:38:57.268Z,1.23
2022-09-23T15:41:24.478Z,1.20
2022-09-23T15:43:54.965Z,1.10
2022-09-23T15:46:28.231Z,1.40
2022-09-23T15:49:08.582Z,1.10
2022-09-23T15:51:37.376Z,1.10
2022-09-23T15:54:08.950Z,1.30
2022-09-23T15:56:35.781Z,1.40
2022-09-23T15:59:02.607Z,1.30
2022-09-23T16:01:36.153Z,1.40
2022-09-23T16:04:04.507Z,1.27
2022-09-23T16:06:31.879Z,1.40
2022-09-23T16:08:58.698Z,1.70
2022-09-23T16:11:31.705Z,1.77
2022-09-23T16:14:00.711Z,1.70
2022-09-23T16:16:28.062Z,2.10
2022-09-23T16:18:55.398Z,1.90
2022-09-23T16:21:29.356Z,1.43
2022-09-23T16:23:59.312Z,1.47
2022-09-23T16:26:30.198Z,1.40
2022-09-23T16:28:58.521Z,1.70
2022-09-23T16:31:26.782Z,1.47
2022-09-23T16:33:54.029Z,1.47
2022-09-23T16:36:31.171Z,1.50
2022-09-23T16:39:00.234Z,1.37
2022-09-23T16:41:29.349Z,1.60
2022-09-23T16:43:56.396Z,1.40
2022-09-23T16:46:27.523Z,1.47
2022-09-23T16:48:56.232Z,1.60
2022-09-23T16:51:26.531Z,1.60
2022-09-23T16:53:55.385Z,1.60
2022-09-23T16:56:28.462Z,1.70
2022-09-23T16:58:56.408Z,1.50
2022-09-23T17:01:47.811Z,1.80
2022-09-23T17:04:16.650Z,2.07
2022-09-23T17:06:46.420Z,2.00
2022-09-23T17:09:23.661Z,2.17
2022-09-23T17:12:25.971Z,2.33
2022-09-23T17:14:53.337Z,2.10
2022-09-23T17:17:20.347Z,2.33
2022-09-23T17:19:47.255Z,2.30
2022-09-23T17:22:14.311Z,2.30
2022-09-23T17:24:41.177Z,2.60
2022-09-23T17:27:18.080Z,2.60
2022-09-23T17:29:45.083Z,2.67
2022-09-23T17:32:11.922Z,2.80
2022-09-23T17:34:39.509Z,2.67
2022-09-23T17:37:06.564Z,2.60
2022-09-23T17:39:33.513Z,2.60
2022-09-23T17:42:00.523Z,2.30
2022-09-23T17:44:27.401Z,2.10
2022-09-23T17:46:55.033Z,2.27
2022-09-23T17:49:24.221Z,2.47
2022-09-23T17:51:52.053Z,2.60
2022-09-23T17:54:18.992Z,2.63
2022-09-23T17:56:46.158Z,2.73
2022-09-23T17:59:13.345Z,2.65
2022-09-23T18:01:40.429Z,2.37
2022-09-23T18:04:07.619Z,2.47
2022-09-23T18:06:37.207Z,2.40
2022-09-23T18:09:06.879Z,2.50
2022-09-23T18:11:39.501Z,2.50
2022-09-23T18:14:14.147Z,2.67
2022-09-23T18:16:42.224Z,3.57
2022-09-23T18:19:12.656Z,3.10
2022-09-23T18:21:41.815Z,3.15
2022-09-23T18:24:31.435Z,3.10
2022-09-23T18:26:59.776Z,3.50
2022-09-23T18:29:27.465Z,3.47
2022-09-23T18:31:54.486Z,3.33
2022-09-23T18:34:22.810Z,5.10
2022-09-23T18:36:50.599Z,5.60
2022-09-23T18:39:17.546Z,5.10
2022-09-23T18:41:44.606Z,6.00
2022-09-23T18:44:11.892Z,5.37
2022-09-23T18:46:39.089Z,5.10
2022-09-23T18:49:24.557Z,5.00
2022-09-23T18:51:59.373Z,5.10
2022-09-23T18:54:29.070Z,4.67
2022-09-23T18:56:56.910Z,4.77
2022-09-23T18:59:28.107Z,5.17
2022-09-23T19:01:55.887Z,3.60
2022-09-23T19:04:24.820Z,4.70
2022-09-23T19:06:53.732Z,4.87
2022-09-23T19:09:20.793Z,5.53
2022-09-23T19:11:52.282Z,4.90
2022-09-23T19:14:19.841Z,4.60
2022-09-23T19:16:49.016Z,4.10
2022-09-23T19:19:16.691Z,3.77
2022-09-23T19:21:43.747Z,4.27
2022-09-23T19:24:14.541Z,3.67
2022-09-23T19:26:41.914Z,3.60
2022-09-23T19:29:14.465Z,3.30
2022-09-23T19:31:42.135Z,3.17
2022-09-23T19:34:23.970Z,3.07
2022-09-23T19:36:51.721Z,2.90
2022-09-23T19:39:24.419Z,2.43
2022-09-23T19:41:52.692Z,2.50
2022-09-23T19:44:20.329Z,2.00
2022-09-23T19:46:55.160Z,2.00
2022-09-23T19:49:24.796Z,2.10
2022-09-23T19:51:56.187Z,2.23
2022-09-23T19:54:24.708Z,2.30
2022-09-23T19:56:51.846Z,2.10
2022-09-23T19:59:19.564Z,2.03
2022-09-23T20:01:48.367Z,2.10
2022-09-23T20:04:16.277Z,2.17
2022-09-23T20:06:43.556Z,2.13
2022-09-23T20:09:10.504Z,2.20
2022-09-23T20:11:38.070Z,2.20
2022-09-23T20:14:06.412Z,2.20
2022-09-23T20:16:35.499Z,2.10
2022-09-23T20:19:04.734Z,2.10
2022-09-23T20:21:33.476Z,1.90
2022-09-23T20:24:01.139Z,2.10
2022-09-23T20:26:46.847Z,2.10
2022-09-23T20:29:13.701Z,2.13
2022-09-23T20:31:41.787Z,2.23
2022-09-23T20:34:10.812Z,2.20
2022-09-23T20:36:41.403Z,2.27
2022-09-23T20:39:10.191Z,1.90
2022-09-23T20:41:39.114Z,2.57
2022-09-23T20:44:11.655Z,2.33
2022-09-23T20:46:38.905Z,2.37
2022-09-23T20:49:07.925Z,2.30
2022-09-23T20:51:38.435Z,2.60
2022-09-23T20:54:05.470Z,2.50
2022-09-23T20:56:32.327Z,2.40
2022-09-23T20:59:04.215Z,2.20
2022-09-23T21:01:36.476Z,2.30
2022-09-23T21:04:05.743Z,2.30
2022-09-23T21:06:37.929Z,2.70
2022-09-23T21:09:06.275Z,2.50
2022-09-23T21:11:33.910Z,2.50
2022-09-23T21:14:02.267Z,2.90
2022-09-23T21:16:29.616Z,2.87
2022-09-23T21:18:56.633Z,3.17
2022-09-23T21:21:23.484Z,3.10
2022-09-23T21:23:51.484Z,2.97
2022-09-23T21:26:23.992Z,3.03
2022-09-23T21:28:57.858Z,3.50
2022-09-23T21:31:33.864Z,3.07
2022-09-23T21:34:07.265Z,2.83
2022-09-23T21:36:39.312Z,3.00
2022-09-23T21:39:08.121Z,3.30
2022-09-23T21:41:35.475Z,3.10
2022-09-23T21:44:04.609Z,3.00
2022-09-23T21:46:33.833Z,2.87
2022-09-23T21:49:03.661Z,3.10
2022-09-23T21:51:30.557Z,3.10
2022-09-23T21:53:58.338Z,3.37
2022-09-23T21:56:30.132Z,3.03
2022-09-23T21:58:58.530Z,3.47
2022-09-23T22:01:26.872Z,2.90
2022-09-23T22:03:59.545Z,3.00
2022-09-23T22:06:28.087Z,3.30
2022-09-23T22:08:59.885Z,3.03
2022-09-23T22:11:51.718Z,5.47
2022-09-23T22:14:20.680Z,7.00
2022-09-23T22:16:47.808Z,8.10
2022-09-23T22:19:15.635Z,8.97
2022-09-23T22:21:45.000Z,8.90
2022-09-23T22:24:12.645Z,9.73
2022-09-23T22:26:41.724Z,10.67
2022-09-23T22:29:29.809Z,11.33
2022-09-23T22:32:15.830Z,11.67
2022-09-23T22:34:51.581Z,13.03
2022-09-23T22:37:21.963Z,13.20
2022-09-23T22:39:48.790Z,13.83
2022-09-23T22:42:16.142Z,14.00
2022-09-23T22:44:43.125Z,14.70
2022-09-23T22:47:10.694Z,14.07
2022-09-23T22:49:37.662Z,14.07
2022-09-23T22:52:08.001Z,14.70
2022-09-23T22:54:35.597Z,14.83
2022-09-23T22:57:09.187Z,15.07
2022-09-23T22:59:37.457Z,15.20
2022-09-23T23:02:05.149Z,16.00
2022-09-23T23:04:32.302Z,14.17
2022-09-23T23:06:59.397Z,15.33
2022-09-23T23:09:26.500Z,15.47
2022-09-23T23:11:53.387Z,15.60
2022-09-23T23:14:20.481Z,15.50
2022-09-23T23:16:47.711Z,15.93
2022-09-23T23:19:17.154Z,15.97
2022-09-23T23:21:45.501Z,15.67
2022-09-23T23:24:23.618Z,16.87
2022-09-23T23:26:51.541Z,16.67
2022-09-23T23:29:20.662Z,15.83
2022-09-23T23:31:48.155Z,17.27
2022-09-23T23:34:20.577Z,17.40
2022-09-23T23:36:53.549Z,17.70
2022-09-23T23:39:23.718Z,17.50
2022-09-23T23:41:55.355Z,17.33
2022-09-23T23:44:26.663Z,17.33
2022-09-23T23:46:54.529Z,18.03
2022-09-23T23:49:22.075Z,18.40
2022-09-23T23:51:49.082Z,19.47
2022-09-23T23:54:16.335Z,20.27
2022-09-23T23:56:43.528Z,20.97
2022-09-23T23:59:10.601Z,20.17
